createdAt,value
2018-11-05T00:00:54.382Z,10.35
2018-11-05T00:01:54.344Z,10.35
2018-11-05T00:02:54.321Z,10.38
2018-11-05T00:03:54.284Z,10.39
2018-11-05T00:04:54.255Z,10.35
2018-11-05T00:05:54.226Z,10.43
2018-11-05T00:06:54.197Z,10.38
2018-11-05T00:07:54.168Z,10.43
2018-11-05T00:08:54.143Z,10.36
2018-11-05T00:09:54.113Z,10.36
2018-11-05T00:10:54.084Z,10.42
2018-11-05T00:11:54.057Z,10.31
2018-11-05T00:12:54.029Z,10.39
2018-11-05T00:13:54.002Z,10.43
2018-11-05T00:14:53.971Z,10.36
2018-11-05T00:15:53.942Z,10.35
2018-11-05T00:16:53.913Z,10.34
2018-11-05T00:17:53.886Z,10.43
2018-11-05T00:18:53.861Z,10.34
2018-11-05T00:19:53.828Z,10.43
2018-11-05T00:20:53.801Z,10.44
2018-11-05T00:21:53.775Z,10.34
2018-11-05T00:22:53.744Z,10.42
2018-11-05T00:23:53.714Z,10.38
2018-11-05T00:24:53.689Z,10.34
2018-11-05T00:25:53.660Z,10.38
2018-11-05T00:26:53.633Z,10.49
2018-11-05T00:27:53.603Z,10.36
2018-11-05T00:28:53.571Z,10.34
2018-11-05T00:29:53.544Z,10.46
2018-11-05T00:30:53.515Z,10.34
2018-11-05T00:31:53.489Z,10.42
2018-11-05T00:32:53.462Z,10.47
2018-11-05T00:33:53.431Z,10.39
2018-11-05T00:34:53.402Z,10.47
2018-11-05T00:35:53.375Z,10.46
2018-11-05T00:36:53.344Z,10.36
2018-11-05T00:37:53.316Z,10.44
2018-11-05T00:38:53.291Z,10.42
2018-11-05T00:39:53.262Z,10.49
2018-11-05T00:40:53.234Z,10.43
2018-11-05T00:41:53.206Z,10.39
2018-11-05T00:42:53.175Z,10.39
2018-11-05T00:43:53.147Z,10.46
2018-11-05T00:44:53.119Z,10.47
2018-11-05T00:45:53.101Z,10.36
2018-11-05T00:46:53.211Z,10.38
2018-11-05T00:47:53.034Z,10.34
2018-11-05T00:48:53.004Z,10.35
2018-11-05T00:49:52.974Z,10.43
2018-11-05T00:50:52.947Z,10.36
2018-11-05T00:51:52.918Z,10.36
2018-11-05T00:52:52.892Z,10.36
2018-11-05T00:53:52.864Z,10.42
2018-11-05T00:54:52.835Z,10.52
2018-11-05T00:55:52.812Z,10.42
2018-11-05T00:56:52.778Z,10.43
2018-11-05T00:57:52.748Z,10.42
2018-11-05T00:58:52.719Z,10.44
2018-11-05T00:59:52.692Z,10.46
2018-11-05T01:00:52.662Z,10.52
2018-11-05T01:01:52.639Z,10.42
2018-11-05T01:02:52.605Z,10.43
2018-11-05T01:03:52.579Z,10.44
2018-11-05T01:04:52.551Z,10.47
2018-11-05T01:05:52.525Z,10.44
2018-11-05T01:06:52.493Z,10.44
2018-11-05T01:07:52.466Z,10.39
2018-11-05T01:08:52.442Z,10.39
2018-11-05T01:09:52.408Z,10.52
2018-11-05T01:10:52.378Z,10.39
2018-11-05T01:11:52.352Z,10.42
2018-11-05T01:12:52.324Z,10.42
2018-11-05T01:13:52.296Z,10.43
2018-11-05T01:14:52.265Z,10.51
2018-11-05T01:15:52.239Z,10.52
2018-11-05T01:16:52.208Z,10.43
2018-11-05T01:17:52.179Z,10.43
2018-11-05T01:18:52.151Z,10.42
2018-11-05T01:19:52.126Z,10.46
2018-11-05T01:20:52.107Z,10.42
2018-11-05T01:21:52.069Z,10.43
2018-11-05T01:22:52.045Z,10.44
2018-11-05T01:23:52.013Z,10.43
2018-11-05T01:24:51.985Z,10.47
2018-11-05T01:25:51.957Z,10.36
2018-11-05T01:26:51.922Z,10.36
2018-11-05T01:27:51.896Z,10.36
2018-11-05T01:28:51.920Z,10.46
2018-11-05T01:29:51.843Z,10.47
2018-11-05T01:30:51.812Z,10.43
2018-11-05T01:31:51.783Z,10.44
2018-11-05T01:32:51.756Z,10.36
2018-11-05T01:33:51.738Z,10.44
2018-11-05T01:34:51.701Z,10.47
2018-11-05T01:35:51.680Z,10.47
2018-11-05T01:36:51.640Z,10.43
2018-11-05T01:37:51.612Z,10.47
2018-11-05T01:38:51.590Z,10.46
2018-11-05T01:39:51.554Z,10.44
2018-11-05T01:40:51.530Z,10.44
2018-11-05T01:41:51.499Z,10.42
2018-11-05T01:42:51.471Z,10.43
2018-11-05T01:43:51.444Z,10.42
2018-11-05T01:44:51.411Z,10.42
2018-11-05T01:45:51.387Z,10.43
2018-11-05T01:46:51.359Z,10.51
2018-11-05T01:47:51.328Z,10.44
2018-11-05T01:48:51.299Z,10.46
2018-11-05T01:49:51.274Z,10.46
2018-11-05T01:50:51.242Z,10.46
2018-11-05T01:51:51.217Z,10.46
2018-11-05T01:52:51.189Z,10.39
2018-11-05T01:53:51.161Z,10.42
2018-11-05T01:54:51.130Z,10.49
2018-11-05T01:55:51.103Z,10.55
2018-11-05T01:56:51.072Z,10.51
2018-11-05T01:57:51.043Z,10.51
2018-11-05T01:58:51.014Z,10.52
2018-11-05T01:59:50.992Z,10.55
2018-11-05T02:00:50.966Z,10.54
2018-11-05T02:01:50.932Z,10.52
2018-11-05T02:02:50.903Z,10.58
2018-11-05T02:03:50.876Z,10.58
2018-11-05T02:04:50.846Z,10.54
2018-11-05T02:05:50.820Z,10.60
2018-11-05T02:06:50.788Z,10.52
2018-11-05T02:07:50.762Z,10.47
2018-11-05T02:08:50.730Z,10.52
2018-11-05T02:09:50.702Z,10.58
2018-11-05T02:10:50.677Z,10.49
2018-11-05T02:11:50.651Z,10.51
2018-11-05T02:12:50.619Z,10.52
2018-11-05T02:13:50.590Z,10.54
2018-11-05T02:14:50.562Z,10.52
2018-11-05T02:15:50.545Z,10.55
2018-11-05T02:16:50.506Z,10.55
2018-11-05T02:17:50.476Z,10.58
2018-11-05T02:18:50.450Z,10.55
2018-11-05T02:19:50.423Z,10.54
2018-11-05T02:20:50.391Z,10.58
2018-11-05T02:21:50.414Z,10.49
2018-11-05T02:22:50.336Z,10.51
2018-11-05T02:23:50.309Z,10.57
2018-11-05T02:24:50.279Z,10.51
2018-11-05T02:25:50.249Z,10.52
2018-11-05T02:26:50.220Z,10.57
2018-11-05T02:27:50.192Z,10.47
2018-11-05T02:28:50.163Z,10.47
2018-11-05T02:29:50.136Z,10.54
2018-11-05T02:30:50.107Z,10.65
2018-11-05T02:31:50.087Z,10.62
2018-11-05T02:32:50.052Z,10.54
2018-11-05T02:33:50.026Z,10.51
2018-11-05T02:34:49.993Z,10.51
2018-11-05T02:35:49.967Z,10.62
2018-11-05T02:36:49.937Z,10.63
2018-11-05T02:37:49.914Z,10.65
2018-11-05T02:38:49.930Z,10.63
2018-11-05T02:39:49.853Z,10.57
2018-11-05T02:40:49.824Z,10.47
2018-11-05T02:41:49.795Z,10.52
2018-11-05T02:42:49.766Z,10.55
2018-11-05T02:43:49.740Z,10.52
2018-11-05T02:44:49.713Z,10.57
2018-11-05T02:45:49.685Z,10.62
2018-11-05T02:46:49.656Z,10.57
2018-11-05T02:47:49.627Z,10.54
2018-11-05T02:48:49.601Z,10.51
2018-11-05T02:49:49.568Z,10.63
2018-11-05T02:50:49.539Z,10.65
2018-11-05T02:51:49.512Z,10.62
2018-11-05T02:52:49.486Z,10.55
2018-11-05T02:53:49.457Z,10.49
2018-11-05T02:54:49.428Z,10.54
2018-11-05T02:55:49.399Z,10.49
2018-11-05T02:56:49.371Z,10.57
2018-11-05T02:57:49.346Z,10.60
2018-11-05T02:58:49.313Z,10.57
2018-11-05T02:59:49.287Z,10.51
2018-11-05T03:00:49.256Z,10.60
2018-11-05T03:01:49.230Z,10.57
2018-11-05T03:02:49.201Z,10.51
2018-11-05T03:03:49.170Z,10.49
2018-11-05T03:04:49.149Z,10.51
2018-11-05T03:05:49.118Z,10.54
2018-11-05T03:06:49.087Z,10.62
2018-11-05T03:07:49.061Z,10.49
2018-11-05T03:08:49.032Z,10.62
2018-11-05T03:09:49.011Z,10.65
2018-11-05T03:10:48.977Z,10.63
2018-11-05T03:11:48.945Z,10.54
2018-11-05T03:12:48.917Z,10.51
2018-11-05T03:13:48.889Z,10.47
2018-11-05T03:14:48.858Z,10.55
2018-11-05T03:15:48.831Z,10.49
2018-11-05T03:16:48.803Z,10.52
2018-11-05T03:17:48.774Z,10.65
2018-11-05T03:18:48.747Z,10.55
2018-11-05T03:19:48.717Z,10.51
2018-11-05T03:20:48.689Z,10.60
2018-11-05T03:21:48.660Z,10.60
2018-11-05T03:22:48.632Z,10.58
2018-11-05T03:23:48.605Z,10.47
2018-11-05T03:24:48.581Z,10.60
2018-11-05T03:25:48.557Z,10.52
2018-11-05T03:26:48.517Z,10.54
2018-11-05T03:27:48.491Z,10.52
2018-11-05T03:28:48.462Z,10.54
2018-11-05T03:29:48.441Z,10.54
2018-11-05T03:30:48.409Z,10.46
2018-11-05T03:31:48.379Z,10.62
2018-11-05T03:32:48.349Z,10.55
2018-11-05T03:33:48.321Z,10.55
2018-11-05T03:34:48.295Z,10.54
2018-11-05T03:35:48.338Z,10.55
2018-11-05T03:36:48.261Z,10.54
2018-11-05T03:37:48.211Z,10.52
2018-11-05T03:38:48.187Z,10.55
2018-11-05T03:39:48.153Z,10.47
2018-11-05T03:40:48.124Z,10.54
2018-11-05T03:41:48.097Z,10.55
2018-11-05T03:42:48.066Z,10.51
2018-11-05T03:43:48.087Z,10.46
2018-11-05T03:44:48.013Z,10.54
2018-11-05T03:45:47.980Z,10.55
2018-11-05T03:46:47.958Z,10.57
2018-11-05T03:47:47.924Z,10.51
2018-11-05T03:48:47.894Z,10.52
2018-11-05T03:49:47.867Z,10.54
2018-11-05T03:50:47.837Z,10.57
2018-11-05T03:51:47.810Z,10.55
2018-11-05T03:52:47.784Z,10.54
2018-11-05T03:53:47.760Z,10.58
2018-11-05T03:54:47.724Z,10.43
2018-11-05T03:55:47.700Z,10.51
2018-11-05T03:56:47.789Z,10.47
2018-11-05T03:57:47.644Z,10.49
2018-11-05T03:58:47.609Z,10.42
2018-11-05T03:59:47.581Z,10.47
2018-11-05T04:00:47.561Z,10.51
2018-11-05T04:01:47.525Z,10.44
2018-11-05T04:02:47.497Z,10.43
2018-11-05T04:03:47.468Z,10.47
2018-11-05T04:04:47.441Z,10.51
2018-11-05T04:05:47.417Z,10.46
2018-11-05T04:06:47.384Z,10.52
2018-11-05T04:07:47.353Z,10.49
2018-11-05T04:08:47.323Z,10.51
2018-11-05T04:09:47.299Z,10.52
2018-11-05T04:10:47.270Z,10.52
2018-11-05T04:11:47.239Z,10.42
2018-11-05T04:12:47.212Z,10.52
2018-11-05T04:13:47.186Z,10.54
2018-11-05T04:14:47.158Z,10.52
2018-11-05T04:15:47.181Z,10.52
2018-11-05T04:16:47.096Z,10.55
2018-11-05T04:17:47.074Z,10.55
2018-11-05T04:18:47.090Z,10.51
2018-11-05T04:19:47.012Z,10.49
2018-11-05T04:20:46.984Z,10.54
2018-11-05T04:21:46.998Z,10.42
2018-11-05T04:22:46.925Z,10.54
2018-11-05T04:23:46.897Z,10.57
2018-11-05T04:24:46.871Z,10.49
2018-11-05T04:25:46.840Z,10.52
2018-11-05T04:26:46.815Z,10.57
2018-11-05T04:27:46.936Z,10.51
2018-11-05T04:28:46.756Z,10.52
2018-11-05T04:29:46.729Z,10.49
2018-11-05T04:30:46.697Z,10.47
2018-11-05T04:31:46.669Z,10.54
2018-11-05T04:32:46.646Z,10.52
2018-11-05T04:33:46.615Z,10.55
2018-11-05T04:34:46.584Z,10.55
2018-11-05T04:35:46.557Z,10.55
2018-11-05T04:36:46.528Z,10.55
2018-11-05T04:37:46.592Z,10.55
2018-11-05T04:38:46.471Z,10.49
2018-11-05T04:39:46.444Z,10.51
2018-11-05T04:40:46.414Z,10.60
2018-11-05T04:41:46.386Z,10.55
2018-11-05T04:42:46.364Z,10.52
2018-11-05T04:43:46.329Z,10.51
2018-11-05T04:44:46.301Z,10.54
2018-11-05T04:45:46.275Z,10.54
2018-11-05T04:46:46.243Z,10.49
2018-11-05T04:47:46.220Z,10.51
2018-11-05T04:48:46.186Z,10.57
2018-11-05T04:49:46.158Z,10.47
2018-11-05T04:50:46.129Z,10.52
2018-11-05T04:51:46.105Z,10.47
2018-11-05T04:52:46.074Z,10.52
2018-11-05T04:53:46.046Z,10.55
2018-11-05T04:54:46.023Z,10.43
2018-11-05T04:55:45.987Z,10.54
2018-11-05T04:56:45.959Z,10.62
2018-11-05T04:57:45.929Z,10.65
2018-11-05T04:58:45.901Z,10.57
2018-11-05T04:59:45.877Z,10.49
2018-11-05T05:00:45.843Z,10.65
2018-11-05T05:01:45.816Z,10.62
2018-11-05T05:02:45.787Z,10.65
2018-11-05T05:03:45.758Z,10.62
2018-11-05T05:04:45.730Z,10.65
2018-11-05T05:05:45.701Z,10.65
2018-11-05T05:06:45.672Z,10.57
2018-11-05T05:07:45.645Z,10.63
2018-11-05T05:08:45.616Z,10.58
2018-11-05T05:09:45.589Z,10.68
2018-11-05T05:10:45.558Z,10.62
2018-11-05T05:11:45.538Z,10.65
2018-11-05T05:12:45.510Z,10.69
2018-11-05T05:13:45.477Z,10.65
2018-11-05T05:14:45.451Z,10.57
2018-11-05T05:15:45.416Z,10.63
2018-11-05T05:16:45.399Z,10.60
2018-11-05T05:17:45.362Z,10.65
2018-11-05T05:18:45.331Z,10.62
2018-11-05T05:19:45.302Z,10.57
2018-11-05T05:20:45.274Z,10.57
2018-11-05T05:21:45.246Z,10.57
2018-11-05T05:22:45.485Z,10.66
2018-11-05T05:23:45.188Z,10.58
2018-11-05T05:24:45.162Z,10.66
2018-11-05T05:25:45.132Z,10.62
2018-11-05T05:26:45.104Z,10.65
2018-11-05T05:27:45.077Z,10.65
2018-11-05T05:28:45.052Z,10.65
2018-11-05T05:29:45.017Z,10.68
2018-11-05T05:30:44.989Z,10.66
2018-11-05T05:31:44.961Z,10.58
2018-11-05T05:32:44.949Z,10.65
2018-11-05T05:33:45.038Z,10.68
2018-11-05T05:34:44.876Z,10.70
2018-11-05T05:35:44.851Z,10.68
2018-11-05T05:36:44.820Z,10.63
2018-11-05T05:37:44.794Z,10.65
2018-11-05T05:38:44.761Z,10.65
2018-11-05T05:39:44.734Z,10.70
2018-11-05T05:40:44.765Z,10.69
2018-11-05T05:41:44.679Z,10.66
2018-11-05T05:42:44.647Z,10.70
2018-11-05T05:43:44.620Z,10.63
2018-11-05T05:44:44.603Z,10.66
2018-11-05T05:45:44.564Z,10.69
2018-11-05T05:46:44.534Z,10.63
2018-11-05T05:47:44.506Z,10.69
2018-11-05T05:48:44.478Z,10.75
2018-11-05T05:49:44.449Z,10.66
2018-11-05T05:50:44.421Z,10.70
2018-11-05T05:51:44.397Z,10.69
2018-11-05T05:52:44.364Z,10.73
2018-11-05T05:53:44.336Z,10.70
2018-11-05T05:54:44.307Z,10.70
2018-11-05T05:55:44.279Z,10.68
2018-11-05T05:56:44.256Z,10.68
2018-11-05T05:57:44.222Z,10.70
2018-11-05T05:58:44.192Z,10.72
2018-11-05T05:59:44.217Z,10.68
2018-11-05T06:00:44.138Z,10.70
2018-11-05T06:01:44.112Z,10.69
2018-11-05T06:02:44.081Z,10.62
2018-11-05T06:03:44.051Z,10.72
2018-11-05T06:04:44.073Z,10.70
2018-11-05T06:05:43.994Z,10.65
2018-11-05T06:06:43.965Z,10.69
2018-11-05T06:07:43.947Z,10.68
2018-11-05T06:08:43.909Z,10.70
2018-11-05T06:09:43.882Z,10.62
2018-11-05T06:10:43.854Z,10.78
2018-11-05T06:11:43.827Z,10.73
2018-11-05T06:12:43.802Z,10.68
2018-11-05T06:13:43.774Z,10.68
2018-11-05T06:14:43.738Z,10.80
2018-11-05T06:15:43.762Z,10.69
2018-11-05T06:16:43.683Z,10.78
2018-11-05T06:17:43.655Z,10.68
2018-11-05T06:18:43.626Z,10.69
2018-11-05T06:19:43.597Z,10.73
2018-11-05T06:20:43.569Z,10.75
2018-11-05T06:21:43.550Z,10.69
2018-11-05T06:22:43.512Z,10.69
2018-11-05T06:23:43.485Z,10.72
2018-11-05T06:24:43.456Z,10.73
2018-11-05T06:25:43.429Z,10.84
2018-11-05T06:26:43.405Z,10.78
2018-11-05T06:27:43.373Z,10.86
2018-11-05T06:28:43.383Z,10.84
2018-11-05T06:29:43.341Z,10.81
2018-11-05T06:30:43.287Z,10.83
2018-11-05T06:31:43.258Z,10.75
2018-11-05T06:32:43.229Z,10.76
2018-11-05T06:33:43.204Z,10.87
2018-11-05T06:34:43.179Z,10.88
2018-11-05T06:35:43.144Z,10.83
2018-11-05T06:36:43.118Z,10.84
2018-11-05T06:37:43.090Z,10.84
2018-11-05T06:38:43.059Z,10.93
2018-11-05T06:39:43.031Z,10.87
2018-11-05T06:40:43.005Z,10.94
2018-11-05T06:41:43.011Z,10.91
2018-11-05T06:42:42.947Z,10.87
2018-11-05T06:43:42.924Z,10.91
2018-11-05T06:44:42.912Z,10.91
2018-11-05T06:45:42.863Z,10.90
2018-11-05T06:46:42.835Z,10.91
2018-11-05T06:47:42.805Z,10.99
2018-11-05T06:48:42.791Z,10.94
2018-11-05T06:49:42.757Z,10.86
2018-11-05T06:50:42.718Z,10.95
2018-11-05T06:51:42.691Z,10.90
2018-11-05T06:52:42.730Z,10.95
2018-11-05T06:53:42.641Z,10.95
2018-11-05T06:54:42.610Z,10.90
2018-11-05T06:55:42.580Z,11.01
2018-11-05T06:56:42.551Z,10.93
2018-11-05T06:57:42.663Z,10.99
2018-11-05T06:58:42.506Z,10.93
2018-11-05T06:59:42.466Z,11.01
2018-11-05T07:00:42.441Z,11.01
2018-11-05T07:01:42.411Z,11.05
2018-11-05T07:02:42.382Z,11.02
2018-11-05T07:03:42.352Z,11.05
2018-11-05T07:04:42.326Z,11.02
2018-11-05T07:05:42.341Z,10.93
2018-11-05T07:06:42.270Z,11.11
2018-11-05T07:07:42.241Z,11.09
2018-11-05T07:08:42.212Z,11.06
2018-11-05T07:09:42.211Z,11.08
2018-11-05T07:10:42.159Z,11.08
2018-11-05T07:11:42.130Z,11.11
2018-11-05T07:12:42.100Z,11.05
2018-11-05T07:13:42.072Z,11.11
2018-11-05T07:14:42.043Z,11.16
2018-11-05T07:15:42.015Z,11.11
2018-11-05T07:16:41.995Z,11.03
2018-11-05T07:17:41.960Z,11.13
2018-11-05T07:18:42.107Z,11.11
2018-11-05T07:19:41.905Z,11.13
2018-11-05T07:20:41.877Z,11.12
2018-11-05T07:21:41.847Z,11.12
2018-11-05T07:22:41.823Z,11.13
2018-11-05T07:23:41.791Z,11.12
2018-11-05T07:24:41.763Z,11.12
2018-11-05T07:25:41.737Z,11.12
2018-11-05T07:26:41.786Z,11.13
2018-11-05T07:27:41.837Z,11.13
2018-11-05T07:28:41.650Z,11.20
2018-11-05T07:29:41.623Z,11.19
2018-11-05T07:30:41.594Z,11.20
2018-11-05T07:31:41.572Z,11.21
2018-11-05T07:32:41.538Z,11.21
2018-11-05T07:33:41.586Z,11.20
2018-11-05T07:34:41.487Z,11.24
2018-11-05T07:35:41.452Z,11.20
2018-11-05T07:36:41.429Z,11.27
2018-11-05T07:37:41.397Z,11.30
2018-11-05T07:38:41.368Z,11.23
2018-11-05T07:39:41.342Z,11.28
2018-11-05T07:40:41.322Z,11.28
2018-11-05T07:41:41.286Z,11.26
2018-11-05T07:42:41.258Z,11.27
2018-11-05T07:43:41.232Z,11.36
2018-11-05T07:44:41.203Z,11.35
2018-11-05T07:45:41.178Z,11.39
2018-11-05T07:46:41.145Z,11.36
2018-11-05T07:47:41.118Z,11.36
2018-11-05T07:48:41.090Z,11.36
2018-11-05T07:49:41.061Z,11.33
2018-11-05T07:50:41.072Z,11.36
2018-11-05T07:51:41.006Z,11.44
2018-11-05T07:52:40.978Z,11.42
2018-11-05T07:53:40.951Z,11.42
2018-11-05T07:54:40.921Z,11.44
2018-11-05T07:55:40.902Z,11.38
2018-11-05T07:56:40.889Z,11.39
2018-11-05T07:57:40.838Z,11.45
2018-11-05T07:58:40.813Z,11.45
2018-11-05T07:59:40.788Z,11.59
2018-11-05T08:00:40.808Z,11.45
2018-11-05T08:01:40.729Z,11.51
2018-11-05T08:02:40.745Z,11.49
2018-11-05T08:03:40.671Z,11.56
2018-11-05T08:04:40.644Z,11.56
2018-11-05T08:05:40.614Z,11.49
2018-11-05T08:06:40.586Z,11.54
2018-11-05T08:07:40.561Z,11.51
2018-11-05T08:08:40.531Z,11.49
2018-11-05T08:09:40.504Z,11.49
2018-11-05T08:10:40.476Z,11.56
2018-11-05T08:11:40.448Z,11.53
2018-11-05T08:12:40.420Z,11.56
2018-11-05T08:13:40.393Z,11.54
2018-11-05T08:14:40.365Z,11.60
2018-11-05T08:15:40.344Z,11.56
2018-11-05T08:16:40.308Z,11.54
2018-11-05T08:17:40.283Z,11.57
2018-11-05T08:18:40.258Z,11.53
2018-11-05T08:19:40.226Z,11.60
2018-11-05T08:20:40.198Z,11.63
2018-11-05T08:21:40.173Z,11.54
2018-11-05T08:22:40.145Z,11.60
2018-11-05T08:23:40.115Z,11.59
2018-11-05T08:24:40.090Z,11.63
2018-11-05T08:25:40.060Z,11.57
2018-11-05T08:26:40.033Z,11.63
2018-11-05T08:27:40.008Z,11.54
2018-11-05T08:28:39.977Z,11.60
2018-11-05T08:29:39.949Z,11.59
2018-11-05T08:30:39.919Z,11.54
2018-11-05T08:31:39.894Z,11.66
2018-11-05T08:32:39.866Z,11.60
2018-11-05T08:33:39.844Z,11.66
2018-11-05T08:34:39.810Z,11.64
2018-11-05T08:35:39.833Z,11.64
2018-11-05T08:36:39.755Z,11.63
2018-11-05T08:37:39.727Z,11.63
2018-11-05T08:38:39.705Z,11.69
2018-11-05T08:39:39.674Z,11.70
2018-11-05T08:40:39.651Z,11.74
2018-11-05T08:41:39.617Z,11.70
2018-11-05T08:42:39.590Z,11.67
2018-11-05T08:43:39.563Z,11.64
2018-11-05T08:44:39.535Z,11.74
2018-11-05T08:45:39.512Z,11.72
2018-11-05T08:46:39.513Z,11.70
2018-11-05T08:47:39.452Z,11.78
2018-11-05T08:48:39.422Z,11.79
2018-11-05T08:49:39.397Z,11.75
2018-11-05T08:50:39.387Z,11.72
2018-11-05T08:51:39.432Z,11.70
2018-11-05T08:52:39.321Z,11.78
2018-11-05T08:53:39.287Z,11.82
2018-11-05T08:54:39.258Z,11.72
2018-11-05T08:55:39.231Z,11.90
2018-11-05T08:56:39.212Z,11.88
2018-11-05T08:57:39.304Z,11.81
2018-11-05T08:58:39.148Z,11.85
2018-11-05T08:59:39.175Z,11.88
2018-11-05T09:00:39.094Z,11.88
2018-11-05T09:01:39.069Z,11.85
2018-11-05T09:02:39.050Z,12.00
2018-11-05T09:03:39.011Z,12.01
2018-11-05T09:04:39.072Z,11.94
2018-11-05T09:05:38.958Z,12.05
2018-11-05T09:06:38.945Z,12.04
2018-11-05T09:07:38.901Z,12.01
2018-11-05T09:08:38.881Z,12.03
2018-11-05T09:09:38.849Z,12.05
2018-11-05T09:10:39.206Z,12.05
2018-11-05T09:11:39.193Z,12.04
2018-11-05T09:12:38.775Z,12.00
2018-11-05T09:13:38.739Z,12.05
2018-11-05T09:14:38.711Z,12.05
2018-11-05T09:15:38.741Z,12.12
2018-11-05T09:16:38.657Z,12.03
2018-11-05T09:17:38.630Z,12.04
2018-11-05T09:18:38.603Z,12.12
2018-11-05T09:19:38.579Z,12.15
2018-11-05T09:20:38.554Z,12.07
2018-11-05T09:21:38.524Z,12.11
2018-11-05T09:22:38.494Z,12.08
2018-11-05T09:23:38.468Z,12.07
2018-11-05T09:24:38.445Z,12.08
2018-11-05T09:25:38.423Z,12.03
2018-11-05T09:26:38.392Z,12.08
2018-11-05T09:27:38.377Z,12.08
2018-11-05T09:28:38.333Z,12.12
2018-11-05T09:29:38.305Z,12.07
2018-11-05T09:30:38.277Z,12.07
2018-11-05T09:31:38.257Z,12.11
2018-11-05T09:32:38.224Z,12.16
2018-11-05T09:33:38.199Z,12.05
2018-11-05T09:34:38.169Z,12.12
2018-11-05T09:35:38.144Z,12.21
2018-11-05T09:38:38.061Z,12.29
2018-11-05T09:39:38.034Z,12.25
2018-11-05T09:40:38.012Z,12.21
2018-11-05T09:41:37.982Z,12.25
2018-11-05T09:42:37.956Z,12.21
2018-11-05T09:43:37.932Z,12.21
2018-11-05T09:44:37.900Z,12.22
2018-11-05T09:45:37.879Z,12.33
2018-11-05T09:46:37.848Z,12.37
2018-11-05T09:47:37.818Z,12.31
2018-11-05T09:48:37.795Z,12.22
2018-11-05T09:49:37.840Z,12.29
2018-11-05T09:50:37.786Z,12.23
2018-11-05T09:51:37.710Z,12.29
2018-11-05T09:52:37.684Z,12.30
2018-11-05T09:53:37.659Z,12.25
2018-11-05T09:54:37.631Z,12.31
2018-11-05T09:55:37.610Z,12.33
2018-11-05T09:56:37.576Z,12.29
2018-11-05T09:57:37.554Z,12.31
2018-11-05T09:58:37.521Z,12.34
2018-11-05T09:59:37.496Z,12.38
2018-11-05T10:00:37.474Z,12.31
2018-11-05T10:01:37.442Z,12.33
2018-11-05T10:02:37.485Z,12.40
2018-11-05T10:03:37.591Z,12.38
2018-11-05T10:04:37.571Z,12.41
2018-11-05T10:05:37.375Z,12.41
2018-11-05T10:06:37.307Z,12.46
2018-11-05T10:07:37.280Z,12.51
2018-11-05T10:08:37.263Z,12.48
2018-11-05T10:09:37.280Z,12.51
2018-11-05T10:10:37.200Z,12.46
2018-11-05T10:11:37.174Z,12.59
2018-11-05T10:12:37.146Z,12.55
2018-11-05T10:13:37.119Z,12.54
2018-11-05T10:14:37.092Z,12.59
2018-11-05T10:15:37.077Z,12.55
2018-11-05T10:16:37.040Z,12.51
2018-11-05T10:17:37.016Z,12.52
2018-11-05T10:18:36.984Z,12.58
2018-11-05T10:19:36.961Z,12.51
2018-11-05T10:20:36.935Z,12.58
2018-11-05T10:21:36.906Z,12.58
2018-11-05T10:22:36.883Z,12.52
2018-11-05T10:23:36.852Z,12.55
2018-11-05T10:24:36.836Z,12.52
2018-11-05T10:25:36.800Z,12.54
2018-11-05T10:26:36.771Z,12.58
2018-11-05T10:27:36.761Z,12.54
2018-11-05T10:28:36.724Z,12.62
2018-11-05T10:29:36.693Z,12.62
2018-11-05T10:30:36.666Z,12.56
2018-11-05T10:31:36.637Z,12.58
2018-11-05T10:32:36.624Z,12.54
2018-11-05T10:33:36.640Z,12.46
2018-11-05T10:34:36.564Z,12.46
2018-11-05T10:35:36.538Z,12.54
2018-11-05T10:36:36.510Z,12.55
2018-11-05T10:37:36.478Z,12.59
2018-11-05T10:38:36.454Z,12.59
2018-11-05T10:39:36.423Z,12.56
2018-11-05T10:40:36.489Z,12.56
2018-11-05T10:41:36.375Z,12.62
2018-11-05T10:42:36.342Z,12.59
2018-11-05T10:43:36.317Z,12.56
2018-11-05T10:44:36.293Z,12.61
2018-11-05T10:45:36.271Z,12.52
2018-11-05T10:46:36.294Z,12.52
2018-11-05T10:47:36.209Z,12.56
2018-11-05T10:48:36.182Z,12.56
2018-11-05T10:49:36.156Z,12.66
2018-11-05T10:50:36.188Z,12.69
2018-11-05T10:51:36.173Z,12.56
2018-11-05T10:52:36.074Z,12.67
2018-11-05T10:53:36.049Z,12.51
2018-11-05T10:54:36.094Z,12.51
2018-11-05T10:55:35.995Z,12.55
2018-11-05T10:56:35.967Z,12.56
2018-11-05T10:57:35.945Z,12.63
2018-11-05T10:58:35.913Z,12.46
2018-11-05T10:59:35.888Z,12.55
2018-11-05T11:00:35.859Z,12.52
2018-11-05T11:01:35.831Z,12.48
2018-11-05T11:02:35.807Z,12.49
2018-11-05T11:03:35.808Z,12.48
2018-11-05T11:04:35.757Z,12.48
2018-11-05T11:05:35.728Z,12.41
2018-11-05T11:06:35.697Z,12.44
2018-11-05T11:07:35.670Z,12.48
2018-11-05T11:08:35.644Z,12.52
2018-11-05T11:09:35.707Z,12.48
2018-11-05T11:10:35.589Z,12.58
2018-11-05T11:11:35.562Z,12.55
2018-11-05T11:12:35.541Z,12.55
2018-11-05T11:13:35.511Z,12.55
2018-11-05T11:14:35.492Z,12.41
2018-11-05T11:15:35.456Z,12.55
2018-11-05T11:16:35.431Z,12.44
2018-11-05T11:17:35.401Z,12.54
2018-11-05T11:18:35.373Z,12.52
2018-11-05T11:19:35.349Z,12.54
2018-11-05T11:20:35.319Z,12.46
2018-11-05T11:21:35.293Z,12.40
2018-11-05T11:22:35.265Z,12.44
2018-11-05T11:23:35.238Z,12.56
2018-11-05T11:24:35.212Z,12.51
2018-11-05T11:25:35.195Z,12.44
2018-11-05T11:26:35.167Z,12.48
2018-11-05T11:27:35.187Z,12.43
2018-11-05T11:28:35.142Z,12.46
2018-11-05T11:29:35.081Z,12.49
2018-11-05T11:30:35.048Z,12.52
2018-11-05T11:31:35.029Z,12.51
2018-11-05T11:32:35.002Z,12.49
2018-11-05T11:33:34.978Z,12.41
2018-11-05T11:34:34.948Z,12.44
2018-11-05T11:35:34.915Z,12.55
2018-11-05T11:36:35.019Z,12.58
2018-11-05T11:37:34.862Z,12.49
2018-11-05T11:38:34.832Z,12.44
2018-11-05T11:39:34.809Z,12.48
2018-11-05T11:40:34.786Z,12.55
2018-11-05T11:41:34.753Z,12.51
2018-11-05T11:42:34.734Z,12.46
2018-11-05T11:43:34.700Z,12.44
2018-11-05T11:44:34.680Z,12.52
2018-11-05T11:45:34.648Z,12.44
2018-11-05T11:46:34.623Z,12.56
2018-11-05T11:47:34.590Z,12.56
2018-11-05T11:48:34.568Z,12.58
2018-11-05T11:49:34.537Z,12.48
2018-11-05T11:50:34.512Z,12.54
2018-11-05T11:51:34.482Z,12.59
2018-11-05T11:52:34.484Z,12.51
2018-11-05T11:53:34.553Z,12.49
2018-11-05T11:54:34.401Z,12.41
2018-11-05T11:55:34.382Z,12.52
2018-11-05T11:56:34.370Z,12.58
2018-11-05T11:57:34.336Z,12.48
2018-11-05T11:58:34.293Z,12.48
2018-11-05T11:59:34.300Z,12.56
2018-11-05T12:00:34.239Z,12.54
2018-11-05T12:01:34.213Z,12.54
2018-11-05T12:02:34.184Z,12.58
2018-11-05T12:03:34.157Z,12.55
2018-11-05T12:04:34.131Z,12.51
2018-11-05T12:05:34.106Z,12.44
2018-11-05T12:06:34.074Z,12.51
2018-11-05T12:07:34.049Z,12.46
2018-11-05T12:08:34.174Z,12.55
2018-11-05T12:09:34.000Z,12.48
2018-11-05T12:10:33.972Z,12.48
2018-11-05T12:11:33.940Z,12.48
2018-11-05T12:12:33.972Z,12.41
2018-11-05T12:13:33.887Z,12.55
2018-11-05T12:14:33.966Z,12.56
2018-11-05T12:15:33.833Z,12.54
2018-11-05T12:16:33.807Z,12.40
2018-11-05T12:17:33.781Z,12.51
2018-11-05T12:18:33.750Z,12.51
2018-11-05T12:19:33.723Z,12.48
2018-11-05T12:20:33.698Z,12.52
2018-11-05T12:21:33.671Z,12.63
2018-11-05T12:22:33.642Z,12.56
2018-11-05T12:23:33.617Z,12.55
2018-11-05T12:24:33.642Z,12.58
2018-11-05T12:25:33.561Z,12.56
2018-11-05T12:26:33.621Z,12.59
2018-11-05T12:27:33.506Z,12.58
2018-11-05T12:28:33.483Z,12.55
2018-11-05T12:29:33.453Z,12.41
2018-11-05T12:30:33.425Z,12.49
2018-11-05T12:31:33.410Z,12.43
2018-11-05T12:32:33.372Z,12.44
2018-11-05T12:33:33.352Z,12.44
2018-11-05T12:34:33.318Z,12.49
2018-11-05T12:35:33.290Z,12.48
2018-11-05T12:36:33.271Z,12.49
2018-11-05T12:37:33.237Z,12.46
2018-11-05T12:38:33.257Z,12.46
2018-11-05T12:39:33.182Z,12.46
2018-11-05T12:40:33.161Z,12.43
2018-11-05T12:41:33.129Z,12.38
2018-11-05T12:42:33.100Z,12.46
2018-11-05T12:43:33.073Z,12.49
2018-11-05T12:44:33.174Z,12.52
2018-11-05T12:45:33.025Z,12.55
2018-11-05T12:46:32.992Z,12.52
2018-11-05T12:47:32.964Z,12.58
2018-11-05T12:48:32.943Z,12.43
2018-11-05T12:49:32.912Z,12.56
2018-11-05T12:50:32.960Z,12.56
2018-11-05T12:51:32.855Z,12.55
2018-11-05T12:52:32.851Z,12.56
2018-11-05T12:53:32.801Z,12.58
2018-11-05T12:54:32.776Z,12.54